Time;durP1;ratioP1;P1;durP2;ratioP2;P2;SDS_P1;SDS_P2;PMS_P1;PMS_P2;Temp;Humidity;BMP_temperature;BMP_pressure;BME280_temperature;BME280_humidity;BME280_pressure;Samples;Min_cycle;Max_cycle;Signal;HPM_P1;HPM_P2
2021/12/30 00:01:53;;;;;;;21.53;5.23;;;;;;;;;;5032901;28;20225;-72
2021/12/30 00:04:25;;;;;;;21.20;5.80;;;;;;;;;;5034387;28;20324;-72
2021/12/30 00:06:53;;;;;;;19.33;5.77;;;;;;;;;;5032427;28;20243;-72
2021/12/30 00:09:20;;;;;;;22.27;5.63;;;;;;;;;;5032375;28;20264;-72
2021/12/30 00:11:47;;;;;;;22.13;5.70;;;;;;;;;;5034303;28;20287;-72
2021/12/30 00:14:13;;;;;;;24.60;5.67;;;;;;;;;;5032072;28;20223;-72
2021/12/30 00:16:40;;;;;;;24.90;5.33;;;;;;;;;;5032609;28;20285;-72
2021/12/30 00:19:07;;;;;;;21.60;5.63;;;;;;;;;;5033298;28;20286;-72
2021/12/30 00:21:33;;;;;;;23.07;6.27;;;;;;;;;;5031792;28;20220;-71
2021/12/30 00:24:01;;;;;;;22.40;5.57;;;;;;;;;;5033043;28;20646;-71
2021/12/30 00:26:27;;;;;;;27.47;6.50;;;;;;;;;;5031428;28;20224;-71
2021/12/30 00:28:54;;;;;;;23.07;6.43;;;;;;;;;;5033626;28;20217;-71
2021/12/30 00:31:20;;;;;;;25.53;6.80;;;;;;;;;;5032561;28;20284;-72
2021/12/30 00:33:47;;;;;;;24.57;6.80;;;;;;;;;;5032568;28;20270;-71
2021/12/30 00:36:14;;;;;;;31.53;6.97;;;;;;;;;;5032339;28;20622;-71
2021/12/30 00:38:42;;;;;;;24.87;6.53;;;;;;;;;;5030770;28;20385;-72
2021/12/30 00:41:10;;;;;;;28.33;7.13;;;;;;;;;;5032426;28;20232;-72
2021/12/30 00:43:38;;;;;;;28.60;8.17;;;;;;;;;;5032658;28;20262;-71
2021/12/30 00:46:07;;;;;;;31.07;7.93;;;;;;;;;;5031536;28;20220;-72
2021/12/30 00:48:34;;;;;;;26.83;8.60;;;;;;;;;;5032387;28;20283;-71
2021/12/30 00:51:01;;;;;;;25.97;8.67;;;;;;;;;;5032909;28;20208;-72
2021/12/30 00:53:28;;;;;;;24.03;9.57;;;;;;;;;;5031510;28;20675;-71
2021/12/30 00:55:54;;;;;;;26.30;9.67;;;;;;;;;;5033216;28;20224;-71
2021/12/30 00:58:24;;;;;;;28.23;11.03;;;;;;;;;;5033851;28;20212;-72
2021/12/30 01:00:52;;;;;;;29.17;10.67;;;;;;;;;;5032284;28;20216;-71
2021/12/30 01:03:18;;;;;;;30.00;11.10;;;;;;;;;;5034154;28;20359;-71
2021/12/30 01:05:45;;;;;;;27.17;11.47;;;;;;;;;;5033060;28;20574;-71
2021/12/30 01:08:12;;;;;;;33.10;13.20;;;;;;;;;;5031064;28;20209;-71
2021/12/30 01:10:41;;;;;;;35.00;13.17;;;;;;;;;;5032313;28;20223;-71
2021/12/30 01:13:15;;;;;;;37.17;13.90;;;;;;;;;;5032184;28;20681;-72
2021/12/30 01:15:49;;;;;;;26.63;13.37;;;;;;;;;;5030334;28;20223;-71
2021/12/30 01:18:29;;;;;;;34.10;14.90;;;;;;;;;;5032165;28;20237;-72
2021/12/30 01:20:56;;;;;;;36.63;14.20;;;;;;;;;;5030750;28;20296;-71
2021/12/30 01:23:23;;;;;;;35.73;15.47;;;;;;;;;;5030590;28;20241;-71
2021/12/30 01:25:49;;;;;;;39.30;14.53;;;;;;;;;;5031956;28;20331;-72
2021/12/30 01:28:16;;;;;;;35.23;16.10;;;;;;;;;;5031814;28;20271;-71
2021/12/30 01:30:44;;;;;;;38.03;15.63;;;;;;;;;;5033290;28;20763;-71
2021/12/30 01:33:10;;;;;;;32.37;15.77;;;;;;;;;;5033001;28;20233;-71
2021/12/30 01:35:37;;;;;;;38.40;15.73;;;;;;;;;;5033420;28;20258;-71
2021/12/30 01:38:05;;;;;;;37.33;16.47;;;;;;;;;;5031126;28;20274;-71
2021/12/30 01:40:33;;;;;;;36.23;16.87;;;;;;;;;;5031941;28;20733;-71
2021/12/30 01:42:59;;;;;;;34.83;15.97;;;;;;;;;;5032461;28;20674;-72
2021/12/30 01:45:27;;;;;;;38.53;16.40;;;;;;;;;;5035044;28;20500;-72
2021/12/30 01:47:55;;;;;;;36.10;15.80;;;;;;;;;;5034710;28;20237;-72
2021/12/30 01:50:23;;;;;;;38.70;15.37;;;;;;;;;;5036695;28;20218;-72
2021/12/30 01:52:50;;;;;;;37.67;15.27;;;;;;;;;;5034871;28;20266;-72
2021/12/30 01:55:17;;;;;;;36.93;14.43;;;;;;;;;;5034206;28;20226;-72
2021/12/30 01:57:44;;;;;;;39.93;14.80;;;;;;;;;;5035387;28;20607;-72
2021/12/30 02:00:13;;;;;;;34.03;13.40;;;;;;;;;;5036039;28;20288;-71
2021/12/30 02:02:41;;;;;;;40.27;14.93;;;;;;;;;;5034511;28;20237;-71
2021/12/30 02:05:09;;;;;;;32.47;13.50;;;;;;;;;;5035572;28;20221;-71
2021/12/30 02:07:36;;;;;;;33.50;13.93;;;;;;;;;;5035430;28;20217;-72
2021/12/30 02:10:02;;;;;;;34.03;13.40;;;;;;;;;;5032373;28;20721;-72
2021/12/30 02:12:32;;;;;;;35.77;13.20;;;;;;;;;;5035580;28;20225;-72
2021/12/30 02:15:00;;;;;;;30.40;12.13;;;;;;;;;;5035045;28;20214;-72
2021/12/30 02:17:27;;;;;;;32.73;13.63;;;;;;;;;;5034332;28;20322;-71
2021/12/30 02:19:58;;;;;;;33.43;12.50;;;;;;;;;;5034224;28;20230;-72
2021/12/30 02:22:24;;;;;;;35.90;11.23;;;;;;;;;;5036296;28;20321;-72
2021/12/30 02:24:51;;;;;;;35.30;12.03;;;;;;;;;;5033602;28;20245;-72
2021/12/30 02:27:18;;;;;;;34.13;11.87;;;;;;;;;;5033997;28;20271;-72
2021/12/30 02:29:44;;;;;;;32.10;12.07;;;;;;;;;;5035329;28;20261;-72
2021/12/30 02:32:11;;;;;;;35.93;11.63;;;;;;;;;;5034159;28;20697;-72
2021/12/30 02:34:38;;;;;;;30.30;11.47;;;;;;;;;;5033351;28;21185;-72
2021/12/30 02:37:08;;;;;;;31.13;11.20;;;;;;;;;;5036024;28;20253;-72
2021/12/30 02:39:34;;;;;;;31.83;10.53;;;;;;;;;;5034426;28;20785;-72
2021/12/30 02:42:01;;;;;;;30.03;11.50;;;;;;;;;;5033398;28;20586;-72
2021/12/30 02:44:27;;;;;;;36.23;11.17;;;;;;;;;;5033856;28;20210;-72
2021/12/30 02:46:54;;;;;;;31.07;11.77;;;;;;;;;;5034898;28;20691;-72
2021/12/30 02:49:21;;;;;;;32.60;12.23;;;;;;;;;;5034149;28;20213;-73
2021/12/30 02:51:48;;;;;;;30.13;11.37;;;;;;;;;;5034450;28;20510;-72
2021/12/30 02:54:16;;;;;;;34.33;11.00;;;;;;;;;;5034592;28;20219;-72
2021/12/30 02:56:46;;;;;;;28.57;10.70;;;;;;;;;;5032624;28;20288;-72
2021/12/30 02:59:13;;;;;;;32.27;11.80;;;;;;;;;;5034312;28;20213;-72
2021/12/30 03:01:40;;;;;;;28.80;11.53;;;;;;;;;;5034642;28;20235;-72
2021/12/30 03:04:07;;;;;;;38.93;11.90;;;;;;;;;;5033259;28;20677;-73
2021/12/30 03:06:33;;;;;;;43.67;12.60;;;;;;;;;;5035139;28;20665;-73
2021/12/30 03:09:00;;;;;;;35.17;13.27;;;;;;;;;;5035802;28;20211;-73
2021/12/30 03:11:29;;;;;;;45.23;12.80;;;;;;;;;;5033110;28;20279;-73
2021/12/30 03:13:56;;;;;;;32.57;13.50;;;;;;;;;;5033953;28;20359;-73
2021/12/30 03:16:24;;;;;;;43.27;12.93;;;;;;;;;;5034826;28;20233;-72
2021/12/30 03:18:52;;;;;;;43.73;14.37;;;;;;;;;;5033213;28;20214;-73
2021/12/30 03:21:20;;;;;;;41.80;14.33;;;;;;;;;;5033966;28;20376;-72
2021/12/30 03:23:49;;;;;;;50.47;15.37;;;;;;;;;;5034473;28;20279;-72
2021/12/30 03:26:16;;;;;;;39.83;13.93;;;;;;;;;;5033012;28;20271;-73
2021/12/30 03:28:44;;;;;;;47.73;15.70;;;;;;;;;;5032488;28;20677;-73
2021/12/30 03:31:13;;;;;;;44.27;16.30;;;;;;;;;;5033243;28;20216;-73
2021/12/30 03:33:39;;;;;;;55.40;15.80;;;;;;;;;;5033689;28;20228;-72
2021/12/30 03:36:07;;;;;;;40.93;15.23;;;;;;;;;;5033750;28;20229;-73
2021/12/30 03:38:37;;;;;;;54.23;18.43;;;;;;;;;;5035283;28;20213;-72
2021/12/30 03:41:04;;;;;;;44.30;16.30;;;;;;;;;;5031581;28;20268;-73
2021/12/30 03:43:31;;;;;;;42.67;16.60;;;;;;;;;;5031624;28;20262;-73
2021/12/30 03:45:59;;;;;;;55.30;19.03;;;;;;;;;;5034455;28;20614;-73
2021/12/30 03:48:32;;;;;;;46.60;18.80;;;;;;;;;;5032406;28;20530;-73
2021/12/30 03:50:59;;;;;;;42.43;17.30;;;;;;;;;;5032422;28;20206;-73
2021/12/30 03:53:25;;;;;;;40.93;17.90;;;;;;;;;;5035057;28;20332;-73
2021/12/30 03:55:52;;;;;;;44.30;19.23;;;;;;;;;;5032352;28;20292;-73
2021/12/30 03:58:18;;;;;;;44.57;19.57;;;;;;;;;;5032648;28;21084;-72
2021/12/30 04:00:45;;;;;;;52.10;19.23;;;;;;;;;;5032605;28;20240;-72
2021/12/30 04:03:13;;;;;;;51.60;21.53;;;;;;;;;;5032948;28;20230;-73
2021/12/30 04:05:39;;;;;;;48.97;21.60;;;;;;;;;;5032415;28;21086;-72
2021/12/30 04:08:07;;;;;;;47.40;20.27;;;;;;;;;;5034018;28;20310;-72
2021/12/30 04:10:34;;;;;;;49.70;20.23;;;;;;;;;;5032574;28;20525;-72
2021/12/30 04:13:00;;;;;;;41.40;21.50;;;;;;;;;;5033041;28;20246;-72
2021/12/30 04:15:27;;;;;;;43.97;20.50;;;;;;;;;;5033359;28;20492;-72
2021/12/30 04:17:53;;;;;;;47.33;22.33;;;;;;;;;;5032301;28;20289;-72
2021/12/30 04:20:21;;;;;;;47.47;22.03;;;;;;;;;;5031586;28;20227;-72
2021/12/30 04:22:47;;;;;;;38.57;20.57;;;;;;;;;;5033046;28;20226;-72
2021/12/30 04:25:16;;;;;;;45.10;22.13;;;;;;;;;;4990065;28;20227;-72
2021/12/30 04:27:43;;;;;;;44.53;20.63;;;;;;;;;;4989405;28;20228;-72
2021/12/30 04:30:13;;;;;;;35.77;19.77;;;;;;;;;;4992141;28;20671;-72
2021/12/30 04:32:39;;;;;;;35.93;19.50;;;;;;;;;;4992317;28;20862;-72
2021/12/30 04:35:07;;;;;;;34.73;19.70;;;;;;;;;;4992624;28;20211;-72
2021/12/30 04:37:36;;;;;;;37.43;20.37;;;;;;;;;;4992341;28;20546;-72
2021/12/30 04:40:04;;;;;;;37.27;20.83;;;;;;;;;;4992266;28;20243;-72
2021/12/30 04:42:31;;;;;;;43.50;21.53;;;;;;;;;;4990544;28;20216;-72
2021/12/30 04:44:57;;;;;;;46.30;23.83;;;;;;;;;;4992706;28;20219;-73
2021/12/30 04:47:25;;;;;;;48.97;23.50;;;;;;;;;;4992283;28;20325;-72
2021/12/30 04:49:52;;;;;;;45.03;22.43;;;;;;;;;;4993095;28;20214;-72
2021/12/30 04:52:19;;;;;;;48.80;22.80;;;;;;;;;;4992949;28;20271;-72
2021/12/30 04:54:47;;;;;;;38.50;21.77;;;;;;;;;;4991154;28;20297;-72
2021/12/30 04:57:13;;;;;;;41.83;22.53;;;;;;;;;;4991634;28;20290;-72
2021/12/30 04:59:40;;;;;;;46.27;22.80;;;;;;;;;;4991225;28;20221;-72
2021/12/30 05:02:06;;;;;;;41.57;21.80;;;;;;;;;;4994132;28;20233;-72
2021/12/30 05:04:33;;;;;;;43.83;21.40;;;;;;;;;;4990011;28;20218;-72
2021/12/30 05:07:00;;;;;;;37.57;19.30;;;;;;;;;;4992999;28;20629;-72
2021/12/30 05:09:26;;;;;;;36.80;20.00;;;;;;;;;;4993575;28;20825;-73
2021/12/30 05:11:54;;;;;;;34.30;19.97;;;;;;;;;;4991388;28;20207;-72
2021/12/30 05:14:21;;;;;;;43.47;21.40;;;;;;;;;;4991126;28;20219;-72
2021/12/30 05:16:47;;;;;;;42.10;21.37;;;;;;;;;;4991399;28;20239;-72
2021/12/30 05:19:13;;;;;;;30.77;16.70;;;;;;;;;;4992581;28;20269;-72
2021/12/30 05:21:40;;;;;;;36.97;21.00;;;;;;;;;;4994962;28;21022;-72
2021/12/30 05:24:07;;;;;;;46.53;21.53;;;;;;;;;;5017369;28;20712;-72
2021/12/30 05:26:34;;;;;;;45.77;20.50;;;;;;;;;;5033987;28;20233;-73
2021/12/30 05:29:04;;;;;;;48.13;21.70;;;;;;;;;;5035115;28;20260;-72
2021/12/30 05:31:31;;;;;;;44.13;25.42;;;;;;;;;;5035048;28;20433;-76
2021/12/30 05:33:57;;;;;;;38.63;21.63;;;;;;;;;;5035510;28;20590;-76
2021/12/30 05:36:24;;;;;;;40.17;20.73;;;;;;;;;;5035174;28;20647;-76
2021/12/30 05:38:51;;;;;;;38.03;20.67;;;;;;;;;;5036842;28;20207;-76
2021/12/30 05:41:17;;;;;;;34.97;17.43;;;;;;;;;;5036581;28;20316;-76
2021/12/30 05:43:43;;;;;;;34.97;18.80;;;;;;;;;;5034901;28;20249;-76
2021/12/30 05:46:11;;;;;;;30.60;17.77;;;;;;;;;;5036721;28;20260;-76
2021/12/30 05:48:37;;;;;;;29.13;17.60;;;;;;;;;;5035372;28;20651;-76
2021/12/30 05:51:04;;;;;;;27.93;16.77;;;;;;;;;;5035605;28;20306;-77
2021/12/30 05:53:31;;;;;;;29.10;15.97;;;;;;;;;;5035989;28;20228;-77
2021/12/30 05:55:58;;;;;;;28.23;14.73;;;;;;;;;;5034485;28;20283;-77
2021/12/30 05:58:25;;;;;;;24.57;14.90;;;;;;;;;;5034982;28;20642;-76
2021/12/30 06:00:51;;;;;;;22.40;12.73;;;;;;;;;;5035661;28;20238;-78
2021/12/30 06:03:20;;;;;;;21.37;12.43;;;;;;;;;;5034989;28;20295;-76
2021/12/30 06:05:47;;;;;;;21.73;11.83;;;;;;;;;;5034733;28;20330;-76
2021/12/30 06:08:14;;;;;;;16.20;10.67;;;;;;;;;;5036526;28;20275;-76
2021/12/30 06:10:41;;;;;;;19.53;10.00;;;;;;;;;;5035033;28;20284;-76
2021/12/30 06:13:08;;;;;;;15.93;9.40;;;;;;;;;;5033849;28;20306;-77
2021/12/30 06:15:34;;;;;;;14.47;9.53;;;;;;;;;;5036516;28;20221;-76
2021/12/30 06:18:01;;;;;;;14.77;9.63;;;;;;;;;;5036100;28;20256;-76
2021/12/30 06:20:30;;;;;;;15.30;9.83;;;;;;;;;;5033176;28;20239;-76
2021/12/30 06:22:57;;;;;;;12.20;8.67;;;;;;;;;;5034539;28;20262;-77
2021/12/30 06:25:24;;;;;;;15.10;8.90;;;;;;;;;;5036216;28;20226;-76
2021/12/30 06:27:51;;;;;;;13.40;9.73;;;;;;;;;;5034350;28;20645;-76
2021/12/30 06:30:18;;;;;;;13.63;8.97;;;;;;;;;;5035042;28;20680;-76
2021/12/30 06:32:44;;;;;;;21.67;12.10;;;;;;;;;;5035625;28;20234;-76
2021/12/30 06:35:11;;;;;;;21.37;13.20;;;;;;;;;;5035730;28;20219;-77
2021/12/30 06:37:40;;;;;;;18.73;12.63;;;;;;;;;;5035271;28;20223;-77
2021/12/30 06:40:09;;;;;;;21.77;14.40;;;;;;;;;;5036294;28;20308;-77
2021/12/30 06:42:36;;;;;;;20.73;14.63;;;;;;;;;;5034455;28;20272;-76
2021/12/30 06:45:04;;;;;;;25.00;16.53;;;;;;;;;;5035732;28;20217;-76
2021/12/30 06:47:30;;;;;;;31.90;18.73;;;;;;;;;;5034885;28;20239;-76
2021/12/30 06:50:01;;;;;;;29.73;18.23;;;;;;;;;;5034470;28;20211;-77
2021/12/30 06:52:28;;;;;;;28.10;20.40;;;;;;;;;;5035282;28;20212;-77
2021/12/30 06:54:56;;;;;;;31.10;20.37;;;;;;;;;;5036951;28;20234;-76
2021/12/30 06:57:22;;;;;;;31.60;20.27;;;;;;;;;;5034316;28;20208;-77
2021/12/30 06:59:49;;;;;;;29.93;20.87;;;;;;;;;;5033141;28;20209;-77
2021/12/30 07:02:15;;;;;;;26.70;18.17;;;;;;;;;;5034172;28;20246;-77
2021/12/30 07:04:41;;;;;;;26.77;17.87;;;;;;;;;;5032201;28;20234;-77
2021/12/30 07:07:08;;;;;;;31.93;18.03;;;;;;;;;;5033063;28;20260;-76
2021/12/30 07:09:35;;;;;;;25.70;14.33;;;;;;;;;;5033181;28;20288;-76
2021/12/30 07:12:03;;;;;;;18.67;14.77;;;;;;;;;;5032709;28;20229;-76
2021/12/30 07:14:30;;;;;;;21.17;14.23;;;;;;;;;;5033907;28;20226;-76
2021/12/30 07:16:56;;;;;;;19.40;15.60;;;;;;;;;;5030982;28;20228;-76
2021/12/30 07:19:23;;;;;;;22.20;16.20;;;;;;;;;;5032631;28;20647;-76
2021/12/30 07:21:50;;;;;;;17.07;14.60;;;;;;;;;;5032282;28;21200;-76
2021/12/30 07:24:17;;;;;;;21.83;16.23;;;;;;;;;;5031116;28;20243;-76
2021/12/30 07:26:44;;;;;;;20.07;15.07;;;;;;;;;;5032387;28;20226;-76
2021/12/30 07:29:12;;;;;;;25.83;16.60;;;;;;;;;;5030168;28;20272;-76
2021/12/30 07:31:38;;;;;;;23.87;15.53;;;;;;;;;;5033685;28;20223;-76
2021/12/30 07:34:05;;;;;;;20.40;14.70;;;;;;;;;;5031503;28;20871;-75
2021/12/30 07:36:31;;;;;;;17.80;12.77;;;;;;;;;;5033375;28;20318;-75
2021/12/30 07:38:58;;;;;;;20.47;13.20;;;;;;;;;;5032834;28;20210;-75
2021/12/30 07:41:24;;;;;;;13.33;11.97;;;;;;;;;;5030317;28;20239;-75
2021/12/30 07:43:51;;;;;;;14.00;11.70;;;;;;;;;;5031934;28;20874;-75
2021/12/30 07:46:19;;;;;;;14.63;10.50;;;;;;;;;;5030252;28;20218;-75
2021/12/30 07:48:45;;;;;;;16.07;8.67;;;;;;;;;;5031751;28;20574;-75
2021/12/30 07:51:12;;;;;;;12.00;9.10;;;;;;;;;;5031634;28;20243;-75
2021/12/30 07:53:39;;;;;;;12.07;8.70;;;;;;;;;;5028747;28;20214;-75
2021/12/30 07:56:06;;;;;;;11.97;7.53;;;;;;;;;;5030673;28;20229;-75
2021/12/30 07:58:33;;;;;;;12.43;7.73;;;;;;;;;;5029315;28;20218;-75
2021/12/30 08:00:59;;;;;;;14.83;8.33;;;;;;;;;;5031820;28;20233;-75
2021/12/30 08:03:27;;;;;;;13.67;8.50;;;;;;;;;;5029572;28;20757;-75
2021/12/30 08:05:54;;;;;;;14.27;8.70;;;;;;;;;;5029542;28;20729;-75
2021/12/30 08:08:20;;;;;;;16.50;9.20;;;;;;;;;;5031897;28;20248;-75
2021/12/30 08:10:47;;;;;;;13.03;7.97;;;;;;;;;;5029874;28;20618;-75
2021/12/30 08:13:13;;;;;;;14.23;7.67;;;;;;;;;;5031683;28;20233;-75
2021/12/30 08:15:40;;;;;;;10.63;7.90;;;;;;;;;;5028985;28;20285;-76
2021/12/30 08:18:06;;;;;;;12.60;10.13;;;;;;;;;;5029801;28;20231;-75
2021/12/30 08:20:34;;;;;;;15.77;11.67;;;;;;;;;;5030528;28;20215;-76
2021/12/30 08:23:00;;;;;;;15.40;11.70;;;;;;;;;;5027793;28;20257;-75
2021/12/30 08:25:27;;;;;;;16.80;12.03;;;;;;;;;;5029203;28;20599;-76
2021/12/30 08:27:55;;;;;;;17.03;12.43;;;;;;;;;;5026808;28;20211;-76
2021/12/30 08:30:23;;;;;;;20.50;13.33;;;;;;;;;;5031546;28;20222;-75
2021/12/30 08:32:51;;;;;;;15.77;12.33;;;;;;;;;;5030030;28;20727;-75
2021/12/30 08:35:21;;;;;;;15.57;12.53;;;;;;;;;;5030447;28;20203;-76
2021/12/30 08:37:49;;;;;;;15.03;12.17;;;;;;;;;;5031989;28;20221;-75
2021/12/30 08:40:17;;;;;;;17.50;14.50;;;;;;;;;;5027366;28;20222;-76
2021/12/30 08:42:45;;;;;;;16.73;13.77;;;;;;;;;;5030628;28;20221;-75
2021/12/30 08:45:12;;;;;;;17.73;14.63;;;;;;;;;;5027471;28;20251;-75
2021/12/30 08:47:39;;;;;;;16.53;13.73;;;;;;;;;;5029708;28;20245;-75
2021/12/30 08:50:07;;;;;;;15.80;13.10;;;;;;;;;;5028554;28;20842;-75
2021/12/30 08:52:34;;;;;;;16.17;13.00;;;;;;;;;;5028629;28;20295;-75
2021/12/30 08:55:04;;;;;;;13.53;11.03;;;;;;;;;;5031955;28;20238;-75
2021/12/30 08:57:31;;;;;;;16.43;11.83;;;;;;;;;;5030186;28;20585;-75
2021/12/30 08:59:58;;;;;;;17.17;10.93;;;;;;;;;;5030373;28;20217;-77
2021/12/30 09:02:24;;;;;;;16.13;10.50;;;;;;;;;;5029387;28;20234;-75
2021/12/30 09:04:51;;;;;;;15.03;10.80;;;;;;;;;;5030893;28;20301;-76
2021/12/30 09:07:18;;;;;;;17.47;8.93;;;;;;;;;;5030641;28;20210;-75
2021/12/30 09:09:45;;;;;;;15.47;8.93;;;;;;;;;;5028998;28;20244;-74
2021/12/30 09:12:13;;;;;;;18.13;9.13;;;;;;;;;;5029476;28;20215;-75
2021/12/30 09:14:40;;;;;;;15.10;8.97;;;;;;;;;;5031499;28;20215;-75
2021/12/30 09:17:07;;;;;;;14.20;8.33;;;;;;;;;;5029964;28;20225;-75
2021/12/30 09:19:34;;;;;;;18.83;9.40;;;;;;;;;;5030955;28;20213;-75
2021/12/30 09:22:00;;;;;;;12.90;7.10;;;;;;;;;;5025164;28;20233;-75
2021/12/30 09:24:27;;;;;;;15.27;7.13;;;;;;;;;;5030817;28;20589;-74
2021/12/30 09:26:53;;;;;;;15.80;7.10;;;;;;;;;;5029858;28;20264;-75
2021/12/30 09:29:21;;;;;;;17.03;7.90;;;;;;;;;;5030398;28;20218;-75
2021/12/30 09:31:50;;;;;;;16.13;7.30;;;;;;;;;;5029357;28;20317;-74
2021/12/30 09:34:17;;;;;;;11.60;6.60;;;;;;;;;;5031144;28;20874;-75
2021/12/30 09:36:44;;;;;;;15.60;6.77;;;;;;;;;;5030161;28;20622;-75
2021/12/30 09:39:12;;;;;;;17.10;7.37;;;;;;;;;;5030164;28;20215;-75
2021/12/30 09:41:39;;;;;;;17.57;7.03;;;;;;;;;;5030941;28;20304;-75
2021/12/30 09:44:06;;;;;;;17.23;5.73;;;;;;;;;;5029363;28;20634;-74
2021/12/30 09:46:35;;;;;;;15.60;6.03;;;;;;;;;;5029104;28;20292;-75
2021/12/30 09:49:02;;;;;;;16.57;5.40;;;;;;;;;;5029102;28;20659;-75
2021/12/30 09:51:28;;;;;;;19.60;6.93;;;;;;;;;;5030018;28;20303;-75
2021/12/30 09:53:55;;;;;;;17.67;6.30;;;;;;;;;;5029376;28;20210;-75
2021/12/30 09:56:22;;;;;;;14.87;6.27;;;;;;;;;;5029692;28;20235;-75
2021/12/30 09:58:49;;;;;;;15.83;6.93;;;;;;;;;;5028639;28;20226;-75
2021/12/30 10:01:16;;;;;;;18.23;7.43;;;;;;;;;;5031417;28;20214;-75
2021/12/30 10:03:45;;;;;;;19.97;6.90;;;;;;;;;;5028956;28;20209;-75
2021/12/30 10:06:14;;;;;;;20.17;7.50;;;;;;;;;;5032114;28;20427;-75
2021/12/30 10:08:53;;;;;;;20.10;7.13;;;;;;;;;;5033770;28;20226;-75
2021/12/30 10:11:19;;;;;;;19.67;6.90;;;;;;;;;;5033663;28;20234;-76
2021/12/30 10:13:51;;;;;;;25.97;7.07;;;;;;;;;;5033689;28;20214;-76
2021/12/30 10:16:18;;;;;;;19.17;6.60;;;;;;;;;;5031826;28;20279;-75
2021/12/30 10:18:48;;;;;;;21.03;7.37;;;;;;;;;;5034378;28;20602;-75
2021/12/30 10:21:17;;;;;;;22.50;6.90;;;;;;;;;;5031585;28;20215;-75
2021/12/30 10:23:45;;;;;;;21.80;6.43;;;;;;;;;;5033441;28;20809;-75
2021/12/30 10:26:12;;;;;;;18.33;5.80;;;;;;;;;;5029966;28;20275;-76
2021/12/30 10:28:40;;;;;;;18.13;5.83;;;;;;;;;;5035554;28;20298;-75
2021/12/30 10:31:20;;;;;;;25.73;5.73;;;;;;;;;;5031201;28;20225;-76
2021/12/30 10:33:51;;;;;;;18.33;6.80;;;;;;;;;;5033910;28;20292;-75
2021/12/30 10:36:20;;;;;;;20.00;5.07;;;;;;;;;;5033243;28;20202;-75
2021/12/30 10:38:47;;;;;;;19.50;5.47;;;;;;;;;;5033282;28;20222;-75
2021/12/30 10:41:13;;;;;;;14.20;4.90;;;;;;;;;;5034062;28;20527;-76
2021/12/30 10:43:46;;;;;;;20.10;5.23;;;;;;;;;;5032046;28;20235;-75
2021/12/30 10:46:18;;;;;;;18.00;4.17;;;;;;;;;;5033497;28;20664;-75
2021/12/30 10:48:53;;;;;;;16.97;4.83;;;;;;;;;;5028587;28;20853;-75
2021/12/30 10:51:21;;;;;;;13.60;4.47;;;;;;;;;;5033621;28;20198;-75
2021/12/30 10:53:48;;;;;;;17.63;4.70;;;;;;;;;;5031444;28;20211;-76
2021/12/30 10:56:27;;;;;;;13.50;4.27;;;;;;;;;;5033687;28;20819;-75
2021/12/30 10:58:55;;;;;;;18.43;4.70;;;;;;;;;;5031617;28;20202;-76
2021/12/30 11:01:24;;;;;;;16.03;4.70;;;;;;;;;;5031989;28;20296;-76
2021/12/30 11:04:00;;;;;;;15.87;4.97;;;;;;;;;;5031198;28;20856;-76
2021/12/30 11:06:28;;;;;;;15.57;5.30;;;;;;;;;;5032014;28;20295;-76
2021/12/30 11:09:08;;;;;;;16.03;4.47;;;;;;;;;;5033350;28;20845;-76
2021/12/30 11:11:35;;;;;;;17.73;4.90;;;;;;;;;;5031399;28;20237;-76
2021/12/30 11:14:03;;;;;;;15.97;4.70;;;;;;;;;;5032475;28;20240;-76
2021/12/30 11:16:30;;;;;;;19.87;5.57;;;;;;;;;;5029372;28;20247;-76
2021/12/30 11:18:59;;;;;;;17.13;5.53;;;;;;;;;;5033244;28;20634;-76
2021/12/30 11:21:36;;;;;;;15.70;4.00;;;;;;;;;;5031776;28;20212;-76
2021/12/30 11:24:03;;;;;;;15.27;4.33;;;;;;;;;;5032935;28;20226;-76
2021/12/30 11:26:29;;;;;;;15.37;4.80;;;;;;;;;;5031522;28;20220;-75
2021/12/30 11:28:56;;;;;;;16.37;4.77;;;;;;;;;;5029808;28;20219;-76
2021/12/30 11:31:23;;;;;;;19.33;4.97;;;;;;;;;;5031584;28;20651;-74
2021/12/30 11:33:50;;;;;;;12.57;4.17;;;;;;;;;;5032111;28;20298;-76
2021/12/30 11:36:18;;;;;;;14.27;4.27;;;;;;;;;;5032909;28;20289;-75
2021/12/30 11:38:45;;;;;;;13.83;4.03;;;;;;;;;;5031528;28;20268;-75
2021/12/30 11:41:17;;;;;;;15.43;4.80;;;;;;;;;;5032953;28;20690;-77
2021/12/30 11:43:46;;;;;;;17.53;5.03;;;;;;;;;;5030004;28;20234;-76
2021/12/30 11:46:40;;;;;;;13.47;4.53;;;;;;;;;;5033372;28;20218;-78
2021/12/30 11:49:08;;;;;;;15.57;4.57;;;;;;;;;;5022389;28;20203;-76
2021/12/30 11:51:45;;;;;;;16.10;4.83;;;;;;;;;;5032504;28;20222;-77
2021/12/30 11:54:37;;;;;;;13.20;4.30;;;;;;;;;;5030584;28;20210;-76
2021/12/30 11:57:27;;;;;;;14.27;4.90;;;;;;;;;;5030887;28;20208;-76
2021/12/30 11:59:54;;;;;;;15.43;3.97;;;;;;;;;;5032413;28;20260;-76
2021/12/30 12:02:32;;;;;;;31.80;21.53;;;;;;;;;;5031157;28;20238;-76
2021/12/30 12:04:59;;;;;;;13.60;4.60;;;;;;;;;;5032454;28;20222;-76
2021/12/30 12:07:27;;;;;;;10.87;3.93;;;;;;;;;;5031010;28;20210;-76
2021/12/30 12:09:54;;;;;;;13.67;3.63;;;;;;;;;;5032782;28;20252;-76
2021/12/30 12:12:34;;;;;;;12.53;3.90;;;;;;;;;;5032699;28;20769;-76
2021/12/30 12:15:04;;;;;;;13.23;3.73;;;;;;;;;;5030851;28;20210;-76
2021/12/30 12:17:37;;;;;;;13.13;4.90;;;;;;;;;;5031918;28;20696;-75
2021/12/30 12:20:19;;;;;;;17.43;3.43;;;;;;;;;;5030194;28;20211;-77
2021/12/30 12:22:47;;;;;;;11.57;3.50;;;;;;;;;;5031520;28;20334;-77
2021/12/30 12:25:15;;;;;;;10.90;3.10;;;;;;;;;;5028767;28;20448;-76
2021/12/30 12:27:45;;;;;;;8.47;2.90;;;;;;;;;;5031383;28;20377;-76
2021/12/30 12:30:26;;;;;;;10.93;3.63;;;;;;;;;;5031452;28;20203;-77
2021/12/30 12:32:52;;;;;;;11.27;3.67;;;;;;;;;;5030183;28;20237;-76
2021/12/30 12:35:33;;;;;;;14.60;4.00;;;;;;;;;;5031133;28;20262;-76
2021/12/30 12:38:05;;;;;;;14.67;5.17;;;;;;;;;;5031344;28;20285;-76
2021/12/30 12:40:41;;;;;;;12.43;4.07;;;;;;;;;;5032455;28;20223;-76
2021/12/30 12:43:27;;;;;;;10.33;3.83;;;;;;;;;;5029552;28;20229;-76
2021/12/30 12:45:57;;;;;;;18.23;4.23;;;;;;;;;;5031654;28;20209;-77
2021/12/30 12:48:36;;;;;;;15.07;3.77;;;;;;;;;;5029965;28;20231;-77
2021/12/30 12:51:06;;;;;;;14.80;5.97;;;;;;;;;;5029375;28;20214;-77
2021/12/30 12:53:56;;;;;;;15.03;5.10;;;;;;;;;;5032605;28;20644;-77
2021/12/30 12:56:29;;;;;;;10.33;3.83;;;;;;;;;;5029821;28;20223;-77
2021/12/30 12:58:58;;;;;;;16.00;4.47;;;;;;;;;;5031517;28;20321;-77
2021/12/30 13:01:26;;;;;;;12.33;5.57;;;;;;;;;;5028771;28;20254;-77
2021/12/30 13:03:57;;;;;;;13.80;4.40;;;;;;;;;;5031352;28;20304;-77
2021/12/30 13:06:26;;;;;;;13.70;4.30;;;;;;;;;;5030531;28;20199;-77
2021/12/30 13:08:55;;;;;;;11.67;3.57;;;;;;;;;;5030590;28;20306;-77
2021/12/30 13:11:29;;;;;;;13.70;4.50;;;;;;;;;;5030521;28;20255;-77
2021/12/30 13:13:56;;;;;;;9.27;3.80;;;;;;;;;;5032100;28;20214;-77
2021/12/30 13:16:25;;;;;;;12.47;4.17;;;;;;;;;;5032181;28;20685;-77
2021/12/30 13:19:00;;;;;;;15.70;4.73;;;;;;;;;;5029779;28;20211;-77
2021/12/30 13:21:27;;;;;;;15.67;4.37;;;;;;;;;;5031475;28;20214;-77
2021/12/30 13:23:54;;;;;;;15.77;5.20;;;;;;;;;;5029654;28;20289;-76
2021/12/30 13:26:21;;;;;;;14.73;5.23;;;;;;;;;;5030002;28;20658;-76
2021/12/30 13:28:49;;;;;;;13.17;4.70;;;;;;;;;;5030174;28;20211;-77
2021/12/30 13:31:17;;;;;;;15.97;5.03;;;;;;;;;;5030216;28;20214;-77
2021/12/30 13:33:55;;;;;;;13.07;4.50;;;;;;;;;;5029739;28;20666;-77
2021/12/30 13:36:22;;;;;;;13.27;4.90;;;;;;;;;;5030582;28;20225;-77
2021/12/30 13:38:49;;;;;;;14.00;4.30;;;;;;;;;;5029405;28;20203;-77
2021/12/30 13:41:19;;;;;;;14.80;4.90;;;;;;;;;;5032192;28;20227;-77
2021/12/30 13:43:46;;;;;;;13.50;5.00;;;;;;;;;;5035239;28;20234;-76
2021/12/30 13:46:13;;;;;;;15.53;4.57;;;;;;;;;;5033341;28;20285;-76
2021/12/30 13:48:44;;;;;;;11.43;5.00;;;;;;;;;;5035653;28;20624;-77
2021/12/30 13:51:15;;;;;;;10.60;4.10;;;;;;;;;;5032963;28;20216;-77
2021/12/30 13:53:46;;;;;;;15.13;4.07;;;;;;;;;;5036361;28;20984;-77
2021/12/30 13:56:19;;;;;;;11.43;4.73;;;;;;;;;;5032152;28;20227;-76
2021/12/30 13:58:47;;;;;;;10.63;3.93;;;;;;;;;;5034932;28;20845;-76
2021/12/30 14:01:16;;;;;;;8.17;3.87;;;;;;;;;;5033423;28;20605;-76
2021/12/30 14:03:45;;;;;;;12.33;4.63;;;;;;;;;;5033857;28;20981;-76
2021/12/30 14:06:13;;;;;;;13.73;5.20;;;;;;;;;;5032663;28;20686;-76
2021/12/30 14:08:49;;;;;;;11.67;4.37;;;;;;;;;;5033646;28;20768;-76
2021/12/30 14:11:15;;;;;;;11.20;4.97;;;;;;;;;;5034778;28;20783;-76
2021/12/30 14:13:44;;;;;;;11.40;5.20;;;;;;;;;;5032884;28;21590;-76
2021/12/30 14:16:22;;;;;;;12.90;5.07;;;;;;;;;;5035175;28;20226;-76
2021/12/30 14:18:52;;;;;;;12.20;4.93;;;;;;;;;;5032825;28;20590;-75
2021/12/30 14:21:20;;;;;;;12.27;5.00;;;;;;;;;;5033752;28;20195;-76
2021/12/30 14:23:49;;;;;;;16.37;4.97;;;;;;;;;;5033873;28;20680;-76
2021/12/30 14:26:22;;;;;;;9.07;4.67;;;;;;;;;;5033281;28;20287;-76
2021/12/30 14:28:55;;;;;;;12.33;4.97;;;;;;;;;;5034198;28;20200;-76
2021/12/30 14:31:25;;;;;;;15.17;5.87;;;;;;;;;;5032840;28;20645;-76